Pewamo, Michigan
Current Conditions -  °F | °C
As of 1:34 AM on Thursday 23 Oct 2014 (Local Time) from KY70 Reporting Station
Overcast Overcast  
Wind Chill: 42°   Ceiling: 1600
Heat Index: 42°   Visibility: 10mi
Dew Point: 38°   Wind: 3mph
Humidity: 85%   Direction: 120°ESE
Pressure: 30.28"   Gusts: NA
Location:  43°N, 84.85°W
Report Text: KY70 230534Z AUTO 12003KT 10SM OVC016 06/03 A3028 RMK AO2 T00550031
Loading
Personal Weather Stations






























Interactive Weather Map
Tropical Storm Tracking
New forecast layout! Learn more

10-Day Weather Forecast

Advertisements
Track Severe Weather on mobile